createdAt,value
2019-02-05T00:01:06.077Z,101771.79
2019-02-05T00:03:33.273Z,101774.94
2019-02-05T00:06:00.377Z,101782.42
2019-02-05T00:08:27.559Z,101775.59
2019-02-05T00:10:55.056Z,101775.45
2019-02-05T00:13:22.198Z,101769.23
2019-02-05T00:15:49.757Z,101767.85
2019-02-05T00:18:16.824Z,101760.54
2019-02-05T00:20:44.412Z,101767.34
2019-02-05T00:23:11.589Z,101764.81
2019-02-05T00:25:38.632Z,101768.45
2019-02-05T00:28:06.108Z,101781.98
2019-02-05T00:30:33.315Z,101781.81
2019-02-05T00:33:00.354Z,101778.97
2019-02-05T00:35:27.503Z,101781.73
2019-02-05T00:37:54.710Z,101778.98
2019-02-05T00:40:21.901Z,101776.58
2019-02-05T00:42:49.086Z,101776.28
2019-02-05T00:45:16.308Z,101784.56
2019-02-05T00:47:43.368Z,101785.95
2019-02-05T00:50:10.548Z,101788.03
2019-02-05T00:52:37.984Z,101783.95
2019-02-05T00:55:06.416Z,101787.78
2019-02-05T00:57:33.592Z,101781.09
2019-02-05T01:00:00.800Z,101783.26
2019-02-05T01:02:27.861Z,101773.19
2019-02-05T01:04:55.042Z,101768.19
2019-02-05T01:07:23.276Z,101771.51
2019-02-05T01:09:50.447Z,101770.91
2019-02-05T01:12:17.731Z,101760.30
2019-02-05T01:14:44.904Z,101757.88
2019-02-05T01:17:12.059Z,101751.00
2019-02-05T01:19:39.603Z,101752.88
2019-02-05T01:22:06.968Z,101758.50
2019-02-05T01:24:34.111Z,101765.75
2019-02-05T01:27:01.288Z,101765.67
2019-02-05T01:29:28.457Z,101767.32
2019-02-05T01:31:55.597Z,101765.04
2019-02-05T01:34:22.741Z,101771.42
2019-02-05T01:36:49.907Z,101765.41
2019-02-05T01:39:17.401Z,101768.13
2019-02-05T01:41:44.569Z,101767.97
2019-02-05T01:44:11.677Z,101768.38
2019-02-05T01:46:38.862Z,101771.35
2019-02-05T01:49:05.925Z,101760.55
2019-02-05T01:51:33.158Z,101765.69
2019-02-05T01:54:00.217Z,101761.88
2019-02-05T01:56:27.817Z,101761.06
2019-02-05T01:58:54.993Z,101767.63
2019-02-05T02:01:22.196Z,101756.89
2019-02-05T02:03:49.690Z,101746.17
2019-02-05T02:06:16.880Z,101746.50
2019-02-05T02:08:44.995Z,101742.20
2019-02-05T02:11:12.147Z,101745.73
2019-02-05T02:13:39.384Z,101738.83
2019-02-05T02:16:06.530Z,101715.41
2019-02-05T02:18:33.731Z,101720.92
2019-02-05T02:21:00.928Z,101724.73
2019-02-05T02:23:28.094Z,101709.42
2019-02-05T02:25:55.193Z,101718.45
2019-02-05T02:28:22.389Z,101712.41
2019-02-05T02:30:49.438Z,101717.97
2019-02-05T02:33:17.102Z,101711.70
2019-02-05T02:35:44.187Z,101716.84
2019-02-05T02:38:11.369Z,101717.30
2019-02-05T02:40:38.508Z,101727.12
2019-02-05T02:43:05.699Z,101726.49
2019-02-05T02:45:32.837Z,101730.14
2019-02-05T02:48:00.293Z,101735.81
2019-02-05T02:50:27.760Z,101732.36
2019-02-05T02:52:55.252Z,101735.81
2019-02-05T02:55:22.417Z,101746.99
2019-02-05T02:57:49.621Z,101749.78
2019-02-05T03:00:17.716Z,101746.44
2019-02-05T03:02:45.103Z,101744.05
2019-02-05T03:05:14.033Z,101740.28
2019-02-05T03:07:41.211Z,101744.73
2019-02-05T03:10:12.457Z,101745.40
2019-02-05T03:12:39.658Z,101733.58
2019-02-05T03:15:07.190Z,101742.94
2019-02-05T03:17:34.324Z,101742.36
2019-02-05T03:20:01.539Z,101741.40
2019-02-05T03:22:28.882Z,101744.72
2019-02-05T03:24:56.018Z,101742.89
2019-02-05T03:27:23.233Z,101741.47
2019-02-05T03:29:50.975Z,101747.81
2019-02-05T03:32:18.171Z,101751.22
2019-02-05T03:34:45.388Z,101753.33
2019-02-05T03:37:12.572Z,101747.59
2019-02-05T03:39:39.719Z,101741.86
2019-02-05T03:42:06.912Z,101743.03
2019-02-05T03:44:34.081Z,101744.86
2019-02-05T03:47:01.360Z,101741.16
2019-02-05T03:49:29.230Z,101740.51
2019-02-05T03:52:07.454Z,101732.45
2019-02-05T03:55:10.789Z,101734.84
2019-02-05T03:58:20.659Z,101736.93
2019-02-05T04:01:25.198Z,101739.05
2019-02-05T04:04:25.886Z,101744.38
2019-02-05T04:07:21.526Z,101741.67
2019-02-05T04:10:28.926Z,101747.10
2019-02-05T04:13:25.860Z,101745.51
2019-02-05T04:16:32.137Z,101746.25
2019-02-05T04:19:22.626Z,101741.09
2019-02-05T04:22:05.745Z,101738.36
2019-02-05T04:25:09.114Z,101736.53
2019-02-05T04:28:05.141Z,101731.63
2019-02-05T04:30:42.218Z,101732.64
2019-02-05T04:34:11.981Z,101726.60
2019-02-05T04:37:03.620Z,101729.97
2019-02-05T04:40:11.335Z,101736.41
2019-02-05T04:42:48.386Z,101736.30
2019-02-05T04:45:55.528Z,101736.47
2019-02-05T04:49:10.531Z,101744.86
2019-02-05T04:52:19.560Z,101738.83
2019-02-05T04:55:27.980Z,101737.14
2019-02-05T04:58:26.049Z,101736.21
2019-02-05T05:01:25.752Z,101735.14
2019-02-05T05:04:39.650Z,101740.22
2019-02-05T05:07:52.054Z,101734.01
2019-02-05T05:10:19.217Z,101739.92
2019-02-05T05:12:46.379Z,101748.55
2019-02-05T05:15:13.555Z,101745.45
2019-02-05T05:17:40.610Z,101752.58
2019-02-05T05:20:09.972Z,101752.91
2019-02-05T05:22:37.136Z,101754.46
2019-02-05T05:25:06.036Z,101757.53
2019-02-05T05:27:33.457Z,101763.26
2019-02-05T05:30:02.098Z,101768.31
2019-02-05T05:32:29.584Z,101751.66
2019-02-05T05:34:56.788Z,101756.38
2019-02-05T05:37:23.998Z,101765.05
2019-02-05T05:39:51.128Z,101755.64
2019-02-05T05:42:18.276Z,101762.28
2019-02-05T05:44:45.776Z,101755.47
2019-02-05T05:47:13.004Z,101756.20
2019-02-05T05:49:40.198Z,101759.95
2019-02-05T05:52:07.379Z,101756.11
2019-02-05T05:54:37.228Z,101756.51
2019-02-05T05:57:04.380Z,101758.75
2019-02-05T05:59:31.594Z,101756.67
2019-02-05T06:01:58.739Z,101758.84
2019-02-05T06:04:25.921Z,101769.55
2019-02-05T06:06:53.098Z,101763.95
2019-02-05T06:09:20.550Z,101773.83
2019-02-05T06:11:47.751Z,101781.56
2019-02-05T06:14:14.976Z,101779.89
2019-02-05T06:16:42.164Z,101782.11
2019-02-05T06:19:09.357Z,101791.31
2019-02-05T06:21:36.561Z,101786.11
2019-02-05T06:24:04.368Z,101780.09
2019-02-05T06:26:31.521Z,101781.84
2019-02-05T06:28:58.688Z,101782.97
2019-02-05T06:31:25.895Z,101778.60
2019-02-05T06:33:53.079Z,101790.55
2019-02-05T06:36:20.301Z,101802.23
2019-02-05T06:38:47.468Z,101798.06
2019-02-05T06:41:14.542Z,101802.90
2019-02-05T06:43:41.769Z,101806.00
2019-02-05T06:46:08.941Z,101807.37
2019-02-05T06:48:36.133Z,101809.14
2019-02-05T06:51:03.335Z,101808.30
2019-02-05T06:53:30.501Z,101807.87
2019-02-05T06:55:57.693Z,101805.76
2019-02-05T06:58:24.925Z,101797.91
2019-02-05T07:00:52.071Z,101793.77
2019-02-05T07:03:19.550Z,101805.58
2019-02-05T07:05:46.780Z,101816.19
2019-02-05T07:08:14.151Z,101813.55
2019-02-05T07:10:41.464Z,101797.00
2019-02-05T07:13:09.228Z,101815.22
2019-02-05T07:15:36.624Z,101814.33
2019-02-05T07:18:06.568Z,101826.78
2019-02-05T07:20:34.987Z,101822.61
2019-02-05T07:23:02.303Z,101826.48
2019-02-05T07:25:29.608Z,101832.90
2019-02-05T07:27:56.995Z,101831.20
2019-02-05T07:30:24.500Z,101830.27
2019-02-05T07:32:51.915Z,101835.97
2019-02-05T07:35:19.341Z,101833.80
2019-02-05T07:37:46.736Z,101835.70
2019-02-05T07:40:15.659Z,101835.97
2019-02-05T07:42:43.253Z,101845.66
2019-02-05T07:45:12.482Z,101850.67
2019-02-05T07:47:39.689Z,101852.47
2019-02-05T07:50:10.201Z,101848.25
2019-02-05T07:52:37.562Z,101856.40
2019-02-05T07:55:05.307Z,101853.39
2019-02-05T07:57:32.625Z,101861.47
2019-02-05T08:00:00.232Z,101871.05
2019-02-05T08:02:27.595Z,101869.02
2019-02-05T08:04:54.955Z,101873.11
2019-02-05T08:07:22.552Z,101871.81
2019-02-05T08:09:49.775Z,101879.88
2019-02-05T08:12:17.339Z,101877.63
2019-02-05T08:14:45.503Z,101875.86
2019-02-05T08:17:12.844Z,101882.83
2019-02-05T08:19:40.209Z,101881.37
2019-02-05T08:22:07.557Z,101884.56
2019-02-05T08:24:34.946Z,101878.33
2019-02-05T08:27:02.451Z,101879.96
2019-02-05T08:29:29.736Z,101883.39
2019-02-05T08:31:57.110Z,101885.51
2019-02-05T08:34:24.731Z,101887.65
2019-02-05T08:36:52.113Z,101882.70
2019-02-05T08:39:19.437Z,101882.99
2019-02-05T08:41:46.824Z,101887.42
2019-02-05T08:44:14.436Z,101890.94
2019-02-05T08:46:41.677Z,101886.88
2019-02-05T08:49:09.103Z,101887.35
2019-02-05T08:51:36.331Z,101891.38
2019-02-05T08:54:03.888Z,101888.97
2019-02-05T08:56:31.239Z,101884.45
2019-02-05T08:58:58.571Z,101883.35
2019-02-05T09:01:25.874Z,101893.05
2019-02-05T09:03:53.444Z,101885.77
2019-02-05T09:06:20.739Z,101889.27
2019-02-05T09:08:48.094Z,101888.77
2019-02-05T09:11:15.474Z,101890.63
2019-02-05T09:13:42.794Z,101884.30
2019-02-05T09:16:10.197Z,101890.66
2019-02-05T09:18:39.102Z,101895.77
2019-02-05T09:21:06.300Z,101902.41
2019-02-05T09:23:34.031Z,101904.17
2019-02-05T09:26:01.412Z,101908.02
2019-02-05T09:28:28.700Z,101906.33
2019-02-05T09:30:55.985Z,101901.33
2019-02-05T09:33:23.325Z,101907.06
2019-02-05T09:35:50.517Z,101910.20
2019-02-05T09:38:20.467Z,101915.18
2019-02-05T09:40:47.893Z,101920.71
2019-02-05T09:43:15.538Z,101919.79
2019-02-05T09:45:42.898Z,101924.91
2019-02-05T09:48:10.243Z,101926.83
2019-02-05T09:50:44.652Z,101924.70
2019-02-05T09:53:10.450Z,101921.63
2019-02-05T09:55:38.297Z,101927.47
2019-02-05T09:58:05.639Z,101932.28
2019-02-05T10:00:35.494Z,101934.59
2019-02-05T10:03:03.371Z,101934.61
2019-02-05T10:05:31.289Z,101933.53
2019-02-05T10:07:58.636Z,101930.55
2019-02-05T10:10:26.288Z,101933.41
2019-02-05T10:12:53.743Z,101939.63
2019-02-05T10:15:23.934Z,101948.36
2019-02-05T10:17:51.346Z,101953.09
2019-02-05T10:20:20.032Z,101963.59
2019-02-05T10:22:47.786Z,101962.11
2019-02-05T10:25:15.692Z,101960.12
2019-02-05T10:27:43.294Z,101957.67
2019-02-05T10:30:27.600Z,101959.16
2019-02-05T10:32:55.598Z,101953.54
2019-02-05T10:35:23.036Z,101951.24
2019-02-05T10:37:50.578Z,101949.28
2019-02-05T10:40:18.773Z,101940.00
2019-02-05T10:42:46.098Z,101947.79
2019-02-05T10:45:14.833Z,101957.03
2019-02-05T10:47:42.169Z,101949.59
2019-02-05T10:50:11.081Z,101953.72
2019-02-05T10:52:39.240Z,101957.52
2019-02-05T10:55:08.337Z,101959.52
2019-02-05T10:57:35.669Z,101962.09
2019-02-05T11:00:09.036Z,101954.41
2019-02-05T11:02:36.090Z,101954.72
2019-02-05T11:05:04.812Z,101965.80
2019-02-05T11:07:32.137Z,101963.77
2019-02-05T11:09:59.716Z,101960.91
2019-02-05T11:12:27.051Z,101958.66
2019-02-05T11:14:54.722Z,101945.81
2019-02-05T11:17:22.745Z,101956.64
2019-02-05T11:19:50.046Z,101946.57
2019-02-05T11:22:17.796Z,101944.22
2019-02-05T11:24:45.401Z,101934.83
2019-02-05T11:27:12.784Z,101926.12
2019-02-05T11:29:40.251Z,101928.30
2019-02-05T11:32:07.724Z,101929.27
2019-02-05T11:34:35.036Z,101930.42
2019-02-05T11:37:02.399Z,101927.16
2019-02-05T11:39:30.024Z,101920.67
2019-02-05T11:41:57.447Z,101920.12
2019-02-05T11:44:24.874Z,101912.78
2019-02-05T11:46:52.434Z,101906.27
2019-02-05T11:49:19.854Z,101913.10
2019-02-05T11:51:47.178Z,101916.38
2019-02-05T11:54:14.530Z,101916.59
2019-02-05T11:56:41.734Z,101918.36
2019-02-05T11:59:09.120Z,101924.58
2019-02-05T12:01:39.253Z,101921.03
2019-02-05T12:04:06.916Z,101921.50
2019-02-05T12:06:34.306Z,101925.88
2019-02-05T12:09:01.750Z,101929.68
2019-02-05T12:11:29.359Z,101931.58
2019-02-05T12:13:56.756Z,101927.77
2019-02-05T12:16:24.155Z,101927.95
2019-02-05T12:18:51.509Z,101922.88
2019-02-05T12:21:18.866Z,101917.13
2019-02-05T12:23:46.374Z,101925.05
2019-02-05T12:26:13.698Z,101916.75
2019-02-05T12:28:41.432Z,101911.84
2019-02-05T12:31:08.869Z,101913.73
2019-02-05T12:33:36.160Z,101910.48
2019-02-05T12:36:04.189Z,101905.88
2019-02-05T12:38:31.498Z,101913.09
2019-02-05T12:40:59.173Z,101907.08
2019-02-05T12:43:26.504Z,101904.14
2019-02-05T12:45:53.878Z,101902.73
2019-02-05T12:48:21.263Z,101902.31
2019-02-05T12:50:48.876Z,101906.05
2019-02-05T12:53:16.366Z,101902.97
2019-02-05T12:55:43.713Z,101908.14
2019-02-05T12:58:11.183Z,101906.77
2019-02-05T13:00:40.477Z,101903.66
2019-02-05T13:03:08.629Z,101904.23
2019-02-05T13:05:36.109Z,101905.19
2019-02-05T13:08:05.537Z,101897.33
2019-02-05T13:10:35.232Z,101892.43
2019-02-05T13:13:03.416Z,101883.71
2019-02-05T13:15:30.762Z,101881.00
2019-02-05T13:17:58.320Z,101888.19
2019-02-05T13:20:27.172Z,101876.10
2019-02-05T13:22:54.846Z,101878.22
2019-02-05T13:25:23.777Z,101874.34
2019-02-05T13:27:51.386Z,101876.30
2019-02-05T13:30:21.077Z,101868.69
2019-02-05T13:32:48.688Z,101880.60
2019-02-05T13:35:16.285Z,101884.86
2019-02-05T13:37:43.771Z,101887.66
2019-02-05T13:40:14.319Z,101887.87
2019-02-05T13:42:41.666Z,101886.63
2019-02-05T13:45:09.663Z,101880.46
2019-02-05T13:47:37.111Z,101882.30
2019-02-05T13:50:07.401Z,101883.64
2019-02-05T13:52:34.720Z,101889.12
2019-02-05T13:55:04.389Z,101885.02
2019-02-05T13:57:31.756Z,101883.69
2019-02-05T13:59:59.115Z,101883.62
2019-02-05T14:02:26.400Z,101881.23
2019-02-05T14:04:53.695Z,101880.52
2019-02-05T14:07:21.380Z,101885.41
2019-02-05T14:09:48.768Z,101892.16
2019-02-05T14:12:16.453Z,101891.20
2019-02-05T14:14:43.787Z,101889.89
2019-02-05T14:17:11.103Z,101890.97
2019-02-05T14:19:38.547Z,101884.72
2019-02-05T14:22:05.875Z,101883.95
2019-02-05T14:24:33.297Z,101889.11
2019-02-05T14:27:00.656Z,101888.97
2019-02-05T14:29:27.963Z,101891.20
2019-02-05T14:31:56.403Z,101882.70
2019-02-05T14:34:23.754Z,101885.86
2019-02-05T14:36:51.093Z,101877.64
2019-02-05T14:39:18.710Z,101884.71
2019-02-05T14:41:46.119Z,101885.42
2019-02-05T14:44:13.497Z,101879.16
2019-02-05T14:46:40.706Z,101885.05
2019-02-05T14:49:08.640Z,101887.98
2019-02-05T14:51:36.139Z,101875.22
2019-02-05T14:54:03.847Z,101882.23
2019-02-05T14:56:31.447Z,101881.70
2019-02-05T14:58:58.797Z,101880.52
2019-02-05T15:01:26.107Z,101876.34
2019-02-05T15:03:53.841Z,101873.07
2019-02-05T15:06:21.426Z,101875.86
2019-02-05T15:08:48.800Z,101874.30
2019-02-05T15:11:16.168Z,101873.57
2019-02-05T15:13:43.559Z,101882.30
2019-02-05T15:16:10.919Z,101883.09
2019-02-05T15:18:38.285Z,101884.06
2019-02-05T15:21:05.580Z,101886.75
2019-02-05T15:23:33.293Z,101884.39
2019-02-05T15:26:00.864Z,101887.06
2019-02-05T15:28:28.077Z,101894.59
2019-02-05T15:30:55.409Z,101892.55
2019-02-05T15:33:48.622Z,101892.64
2019-02-05T15:36:35.852Z,101895.70
2019-02-05T15:39:12.080Z,101904.03
2019-02-05T15:41:39.390Z,101904.48
2019-02-05T15:44:06.733Z,101910.59
2019-02-05T15:46:34.152Z,101898.91
2019-02-05T15:49:01.653Z,101906.52
2019-02-05T15:51:29.300Z,101903.80
2019-02-05T15:53:56.569Z,101900.55
2019-02-05T15:56:23.985Z,101905.73
2019-02-05T15:58:51.305Z,101907.66
2019-02-05T16:01:18.722Z,101910.67
2019-02-05T16:03:46.481Z,101905.18
2019-02-05T16:06:13.819Z,101908.88
2019-02-05T16:08:41.246Z,101907.95
2019-02-05T16:11:08.577Z,101901.02
2019-02-05T16:13:36.265Z,101904.20
2019-02-05T16:16:04.529Z,101901.67
2019-02-05T16:18:32.271Z,101895.89
2019-02-05T16:20:59.884Z,101897.17
2019-02-05T16:23:27.313Z,101895.91
2019-02-05T16:25:54.638Z,101897.30
2019-02-05T16:28:22.047Z,101894.70
2019-02-05T16:30:49.670Z,101899.82
2019-02-05T16:33:16.990Z,101901.83
2019-02-05T16:35:44.232Z,101900.30
2019-02-05T16:38:11.603Z,101897.78
2019-02-05T16:40:39.477Z,101900.53
2019-02-05T16:43:06.820Z,101901.19
2019-02-05T16:45:34.315Z,101906.95
2019-02-05T16:48:01.645Z,101901.80
2019-02-05T16:50:37.671Z,101905.73
2019-02-05T16:53:06.161Z,101896.23
2019-02-05T16:55:33.482Z,101905.25
2019-02-05T16:58:00.920Z,101902.77
2019-02-05T17:00:30.095Z,101906.38
2019-02-05T17:02:57.797Z,101905.65
2019-02-05T17:05:26.284Z,101908.95
2019-02-05T17:07:53.758Z,101909.91
2019-02-05T17:10:21.202Z,101916.58
2019-02-05T17:12:48.616Z,101915.01
2019-02-05T17:15:16.466Z,101921.67
2019-02-05T17:17:44.009Z,101921.72
2019-02-05T17:20:17.558Z,101920.02
2019-02-05T17:22:44.890Z,101922.75
2019-02-05T17:25:13.674Z,101929.45
2019-02-05T17:27:41.416Z,101930.02
2019-02-05T17:30:11.986Z,101925.92
2019-02-05T17:32:40.472Z,101920.63
2019-02-05T17:35:08.378Z,101926.37
2019-02-05T17:37:35.749Z,101927.06
2019-02-05T17:40:04.392Z,101923.66
2019-02-05T17:42:31.991Z,101925.53
2019-02-05T17:44:59.437Z,101930.80
2019-02-05T17:47:26.759Z,101926.09
2019-02-05T17:49:54.128Z,101922.80
2019-02-05T17:52:21.535Z,101922.05
2019-02-05T17:54:48.880Z,101923.12
2019-02-05T17:57:16.324Z,101919.29
2019-02-05T17:59:43.577Z,101929.83
2019-02-05T18:02:11.139Z,101930.82
2019-02-05T18:04:38.471Z,101929.91
2019-02-05T18:07:06.163Z,101932.56
2019-02-05T18:09:33.489Z,101936.48
2019-02-05T18:12:00.905Z,101936.48
2019-02-05T18:14:28.307Z,101936.96
2019-02-05T18:16:55.662Z,101939.41
2019-02-05T18:19:23.445Z,101929.75
2019-02-05T18:21:50.799Z,101930.84
2019-02-05T18:24:19.098Z,101929.09
2019-02-05T18:26:46.483Z,101933.31
2019-02-05T18:29:13.830Z,101936.45
2019-02-05T18:31:41.187Z,101936.96
2019-02-05T18:34:08.563Z,101932.17
2019-02-05T18:36:36.195Z,101939.17
2019-02-05T18:39:07.376Z,101936.09
2019-02-05T18:41:34.731Z,101929.95
2019-02-05T18:44:02.124Z,101925.08
2019-02-05T18:46:29.420Z,101919.69
2019-02-05T18:49:04.550Z,101922.73
2019-02-05T18:51:26.062Z,101923.21
2019-02-05T18:53:53.800Z,101923.29
2019-02-05T18:56:21.164Z,101917.82
2019-02-05T18:58:50.486Z,101917.61
2019-02-05T19:01:17.769Z,101917.61
2019-02-05T19:03:45.200Z,101918.69
2019-02-05T19:06:12.498Z,101920.95
2019-02-05T19:08:39.832Z,101921.00
2019-02-05T19:11:07.873Z,101927.30
2019-02-05T19:13:35.292Z,101924.69
2019-02-05T19:16:02.736Z,101918.11
2019-02-05T19:18:30.442Z,101923.77
2019-02-05T19:20:57.734Z,101919.85
2019-02-05T19:23:25.559Z,101924.52
2019-02-05T19:25:58.891Z,101925.02
2019-02-05T19:28:37.000Z,101923.31
2019-02-05T19:31:25.281Z,101919.95
2019-02-05T19:33:52.880Z,101922.56
2019-02-05T19:36:20.192Z,101926.58
2019-02-05T19:38:47.530Z,101920.60
2019-02-05T19:41:14.919Z,101925.03
2019-02-05T19:43:42.201Z,101931.73
2019-02-05T19:46:38.332Z,101934.34
2019-02-05T19:49:22.060Z,101923.50
2019-02-05T19:51:49.618Z,101928.33
2019-02-05T19:54:17.331Z,101916.61
2019-02-05T19:56:44.638Z,101916.61
2019-02-05T19:59:12.442Z,101913.48
2019-02-05T20:01:39.758Z,101914.91
2019-02-05T20:04:07.072Z,101909.33
2019-02-05T20:06:34.513Z,101911.47
2019-02-05T20:09:03.568Z,101903.80
2019-02-05T20:11:31.177Z,101903.91
2019-02-05T20:13:59.670Z,101901.81
2019-02-05T20:16:27.007Z,101897.08
2019-02-05T20:18:54.470Z,101893.23
2019-02-05T20:21:21.844Z,101896.63
2019-02-05T20:23:49.109Z,101896.75
2019-02-05T20:26:16.743Z,101898.69
2019-02-05T20:28:44.233Z,101902.65
2019-02-05T20:31:11.479Z,101892.72
2019-02-05T20:33:49.424Z,101896.23
2019-02-05T20:36:08.164Z,101900.95
2019-02-05T20:38:35.376Z,101907.52
2019-02-05T20:41:02.637Z,101907.52
2019-02-05T20:43:29.818Z,101905.97
2019-02-05T20:45:57.549Z,101908.86
2019-02-05T20:48:24.736Z,101910.23
2019-02-05T20:50:51.889Z,101915.86
2019-02-05T20:53:19.088Z,101913.81
2019-02-05T20:55:46.339Z,101911.20
2019-02-05T20:58:13.654Z,101910.09
2019-02-05T21:00:40.906Z,101910.84
2019-02-05T21:03:08.132Z,101915.55
2019-02-05T21:05:35.944Z,101909.53
2019-02-05T21:08:03.404Z,101908.27
2019-02-05T21:10:31.113Z,101911.44
2019-02-05T21:12:58.557Z,101909.46
2019-02-05T21:15:25.810Z,101910.85
2019-02-05T21:17:53.004Z,101912.11
2019-02-05T21:20:28.956Z,101906.50
2019-02-05T21:22:49.712Z,101904.44
2019-02-05T21:25:18.202Z,101908.44
2019-02-05T21:27:45.504Z,101901.59
2019-02-05T21:30:15.161Z,101905.03
2019-02-05T21:32:42.454Z,101901.16
2019-02-05T21:35:09.984Z,101902.38
2019-02-05T21:37:37.264Z,101898.10
2019-02-05T21:40:05.998Z,101900.72
2019-02-05T21:42:33.944Z,101901.16
2019-02-05T21:45:01.238Z,101898.66
2019-02-05T21:47:28.627Z,101891.34
2019-02-05T21:49:55.843Z,101889.56
2019-02-05T21:52:23.086Z,101891.89
2019-02-05T21:54:50.253Z,101893.33
2019-02-05T21:57:17.512Z,101893.88
2019-02-05T21:59:44.635Z,101896.48
2019-02-05T22:02:12.390Z,101888.73
2019-02-05T22:04:40.028Z,101886.36
2019-02-05T22:07:07.935Z,101889.12
2019-02-05T22:09:35.212Z,101882.98
2019-02-05T22:12:02.400Z,101882.67
2019-02-05T22:14:29.583Z,101878.88
2019-02-05T22:16:57.380Z,101881.88
2019-02-05T22:19:24.602Z,101881.17
2019-02-05T22:21:51.776Z,101882.36
2019-02-05T22:24:19.021Z,101882.64
2019-02-05T22:26:46.539Z,101873.81
2019-02-05T22:29:13.717Z,101868.03
2019-02-05T22:31:40.935Z,101873.23
2019-02-05T22:34:08.784Z,101868.66
2019-02-05T22:36:35.951Z,101867.65
2019-02-05T22:39:07.321Z,101866.18
2019-02-05T22:41:34.436Z,101868.34
2019-02-05T22:44:01.982Z,101877.27
2019-02-05T22:46:29.578Z,101870.50
2019-02-05T22:48:57.107Z,101865.84
2019-02-05T22:51:24.267Z,101875.73
2019-02-05T22:53:51.478Z,101877.36
2019-02-05T22:56:18.951Z,101869.88
2019-02-05T22:58:46.564Z,101873.59
2019-02-05T23:01:45.360Z,101873.86
2019-02-05T23:04:50.859Z,101872.76
2019-02-05T23:07:18.759Z,101879.92
2019-02-05T23:10:12.396Z,101886.63
2019-02-05T23:12:52.110Z,101880.66
2019-02-05T23:15:24.171Z,101879.47
2019-02-05T23:17:51.853Z,101873.58
2019-02-05T23:20:20.718Z,101876.77
2019-02-05T23:22:48.230Z,101876.38
2019-02-05T23:25:15.496Z,101879.91
2019-02-05T23:27:42.729Z,101876.09
2019-02-05T23:30:32.745Z,101881.45
2019-02-05T23:33:00.197Z,101880.24
2019-02-05T23:35:27.698Z,101874.91
2019-02-05T23:37:54.848Z,101882.39
2019-02-05T23:40:22.195Z,101878.15
2019-02-05T23:42:49.344Z,101882.16
2019-02-05T23:45:16.570Z,101884.90
2019-02-05T23:47:43.649Z,101884.23
2019-02-05T23:50:12.501Z,101882.61
2019-02-05T23:52:39.988Z,101886.05
2019-02-05T23:55:08.921Z,101887.80
2019-02-05T23:57:36.107Z,101883.14
